KGSH

Goshen Municipal Airport

Goshen, Indiana, USA
METAR KGSH 250453Z AUTO 00000KT 10SM CLR 17/13 A3007 RMK AO2 SLP177 T01670128 402830117
Observed Flight Rules
May-25 @ 04:53 UTC (37 minutes ago) Visual Flight Rules
Visibility Clouds
10 miles
  • Clear skies
Temperatures Readings
Current 17°C / 63°F
Dewpoint 13°C / 55°F
Humidity 77%
Altimeter 30.07" Hg
Pressure 1017.7 hPa
Elevation 252
METAR KGSH 250453Z AUTO 00000KT 10SM CLR 17/13 A3007 RMK AO2 SLP177 T01670128 402830117
Observed Flight Rules
May-25 @ 04:53 UTC
(37 minutes ago)
VFR
Clouds
  • Clear skies
Temperature Dewpoint
17°C / 63°F 13°C / 55°F
Humidity Altimeter Pressure
77% 30.07" Hg 1017.7 hPa